createdAt,value
2022-09-09T00:00:30.540Z,13.90
2022-09-09T00:01:30.517Z,14.50
2022-09-09T00:02:30.573Z,14.80
2022-09-09T00:03:30.554Z,12.90
2022-09-09T00:04:30.492Z,14.80
2022-09-09T00:05:30.477Z,16.30
2022-09-09T00:06:30.438Z,16.10
2022-09-09T00:07:30.473Z,14.70
2022-09-09T00:08:30.429Z,19.60
2022-09-09T00:09:30.424Z,14.30
2022-09-09T00:10:30.407Z,15.70
2022-09-09T00:11:31.579Z,13.00
2022-09-09T00:12:30.404Z,12.30
2022-09-09T00:13:30.344Z,15.60
2022-09-09T00:14:30.340Z,12.70
2022-09-09T00:15:30.384Z,12.40
2022-09-09T00:16:30.309Z,15.90
2022-09-09T00:17:30.314Z,14.80
2022-09-09T00:18:30.314Z,14.60
2022-09-09T00:19:30.274Z,13.70
2022-09-09T00:20:30.270Z,13.40
2022-09-09T00:21:30.256Z,12.50
2022-09-09T00:22:30.237Z,14.20
2022-09-09T00:23:30.351Z,11.50
2022-09-09T00:24:30.218Z,13.70
2022-09-09T00:25:30.184Z,12.50
2022-09-09T00:26:30.176Z,13.30
2022-09-09T00:27:30.178Z,12.40
2022-09-09T00:28:30.146Z,14.80
2022-09-09T00:29:30.189Z,15.90
2022-09-09T00:30:30.120Z,18.50
2022-09-09T00:31:30.221Z,14.90
2022-09-09T00:32:30.101Z,16.40
2022-09-09T00:33:30.094Z,15.00
2022-09-09T00:34:30.057Z,14.40
2022-09-09T00:35:30.061Z,16.50
2022-09-09T00:36:30.054Z,19.30
2022-09-09T00:37:30.031Z,14.60
2022-09-09T00:38:30.011Z,17.00
2022-09-09T00:39:30.043Z,15.10
2022-09-09T00:40:29.992Z,16.30
2022-09-09T00:41:29.961Z,14.10
2022-09-09T00:42:29.953Z,17.00
2022-09-09T00:43:29.955Z,15.30
2022-09-09T00:44:29.923Z,13.90
2022-09-09T00:45:29.925Z,13.90
2022-09-09T00:46:30.001Z,12.00
2022-09-09T00:47:29.883Z,12.30
2022-09-09T00:48:29.884Z,17.00
2022-09-09T00:49:29.854Z,15.30
2022-09-09T00:50:29.852Z,14.50
2022-09-09T00:51:29.857Z,14.20
2022-09-09T00:52:29.830Z,13.70
2022-09-09T00:53:29.801Z,11.70
2022-09-09T00:54:29.784Z,12.70
2022-09-09T00:55:30.785Z,14.20
2022-09-09T00:56:29.758Z,13.00
2022-09-09T00:57:29.757Z,11.70
2022-09-09T00:58:29.774Z,13.30
2022-09-09T00:59:29.715Z,12.70
2022-09-09T01:00:29.708Z,11.30
2022-09-09T01:01:29.772Z,14.20
2022-09-09T01:02:29.754Z,14.70
2022-09-09T01:03:29.669Z,14.20
2022-09-09T01:04:29.647Z,13.30
2022-09-09T01:05:29.642Z,14.60
2022-09-09T01:06:29.650Z,12.90
2022-09-09T01:07:29.618Z,11.80
2022-09-09T01:08:29.631Z,13.80
2022-09-09T01:09:29.589Z,15.00
2022-09-09T01:10:29.591Z,12.60
2022-09-09T01:11:29.547Z,11.70
2022-09-09T01:12:29.543Z,12.60
2022-09-09T01:13:29.529Z,16.20
2022-09-09T01:14:30.452Z,12.30
2022-09-09T01:15:29.524Z,14.10
2022-09-09T01:16:29.559Z,14.30
2022-09-09T01:17:29.495Z,13.10
2022-09-09T01:18:29.512Z,12.90
2022-09-09T01:19:29.451Z,10.50
2022-09-09T01:20:29.439Z,15.10
2022-09-09T01:21:29.409Z,12.40
2022-09-09T01:22:29.537Z,13.00
2022-09-09T01:23:29.397Z,12.20
2022-09-09T01:24:29.377Z,13.20
2022-09-09T01:25:29.356Z,10.80
2022-09-09T01:26:29.380Z,10.70
2022-09-09T01:27:29.348Z,10.40
2022-09-09T01:28:29.493Z,15.00
2022-09-09T01:29:29.309Z,13.20
2022-09-09T01:30:29.335Z,13.80
2022-09-09T01:31:29.265Z,15.60
2022-09-09T01:32:30.230Z,15.30
2022-09-09T01:33:29.245Z,14.40
2022-09-09T01:34:29.224Z,12.50
2022-09-09T01:35:29.239Z,16.10
2022-09-09T01:36:29.198Z,15.20
2022-09-09T01:37:29.221Z,14.10
2022-09-09T01:38:29.247Z,12.80
2022-09-09T01:39:29.392Z,12.80
2022-09-09T01:40:29.174Z,12.10
2022-09-09T01:41:29.138Z,14.20
2022-09-09T01:42:29.119Z,15.80
2022-09-09T01:43:29.124Z,10.70
2022-09-09T01:44:29.088Z,13.10
2022-09-09T01:45:29.096Z,12.20
2022-09-09T01:46:29.108Z,13.80
2022-09-09T01:47:29.057Z,12.60
2022-09-09T01:48:29.099Z,12.40
2022-09-09T01:49:29.021Z,10.80
2022-09-09T01:50:29.161Z,14.50
2022-09-09T01:51:31.855Z,15.20
2022-09-09T01:52:28.976Z,12.80
2022-09-09T01:53:28.976Z,13.00
2022-09-09T01:54:29.311Z,10.40
2022-09-09T01:55:28.943Z,12.40
2022-09-09T01:56:29.040Z,11.20
2022-09-09T01:57:29.250Z,9.90
2022-09-09T01:58:29.016Z,13.30
2022-09-09T02:00:42.899Z,12.60
2022-09-09T02:01:40.919Z,13.90
2022-09-09T02:02:40.526Z,10.40
2022-09-09T02:03:40.396Z,18.40
2022-09-09T02:04:41.469Z,15.20
2022-09-09T02:05:40.369Z,16.40
2022-09-09T02:06:40.326Z,13.90
2022-09-09T02:07:40.363Z,13.30
2022-09-09T02:08:40.283Z,11.30
2022-09-09T02:09:40.290Z,12.80
2022-09-09T02:10:40.248Z,14.70
2022-09-09T02:11:40.231Z,16.10
2022-09-09T02:12:40.238Z,12.40
2022-09-09T02:13:40.327Z,13.30
2022-09-09T02:14:40.188Z,15.60
2022-09-09T02:15:40.190Z,12.50
2022-09-09T02:16:40.219Z,15.00
2022-09-09T02:17:40.169Z,13.80
2022-09-09T02:18:40.170Z,15.20
2022-09-09T02:19:40.157Z,15.30
2022-09-09T02:20:40.126Z,13.00
2022-09-09T02:21:40.118Z,12.70
2022-09-09T02:22:40.079Z,11.40
2022-09-09T02:23:40.082Z,12.70
2022-09-09T02:24:40.060Z,13.00
2022-09-09T02:25:40.064Z,10.70
2022-09-09T02:26:40.052Z,12.30
2022-09-09T02:27:40.029Z,9.00
2022-09-09T02:28:40.030Z,13.50
2022-09-09T02:29:39.989Z,15.40
2022-09-09T02:30:40.138Z,15.40
2022-09-09T02:31:39.974Z,11.20
2022-09-09T02:32:39.940Z,11.80
2022-09-09T02:33:39.954Z,11.10
2022-09-09T02:34:40.015Z,13.00
2022-09-09T02:35:39.931Z,9.10
2022-09-09T02:36:40.017Z,10.90
2022-09-09T02:37:39.882Z,9.80
2022-09-09T02:38:39.932Z,12.40
2022-09-09T02:39:39.953Z,12.10
2022-09-09T02:40:39.861Z,13.00
2022-09-09T02:41:39.843Z,10.00
2022-09-09T02:42:39.846Z,10.70
2022-09-09T02:43:39.818Z,11.50
2022-09-09T02:44:39.783Z,13.60
2022-09-09T02:45:39.829Z,8.80
2022-09-09T02:46:39.788Z,10.40
2022-09-09T02:47:39.745Z,12.00
2022-09-09T02:48:39.749Z,10.90
2022-09-09T02:49:39.735Z,10.10
2022-09-09T02:50:39.707Z,11.70
2022-09-09T02:51:39.708Z,10.30
2022-09-09T02:52:39.668Z,9.10
2022-09-09T02:53:39.794Z,9.60
2022-09-09T02:54:39.670Z,10.80
2022-09-09T02:55:39.648Z,9.10
2022-09-09T02:56:39.619Z,11.70
2022-09-09T02:57:42.323Z,8.40
2022-09-09T02:58:39.602Z,9.60
2022-09-09T02:59:39.589Z,11.60
2022-09-09T03:00:39.601Z,11.90
2022-09-09T03:01:39.603Z,11.50
2022-09-09T03:02:39.629Z,10.30
2022-09-09T03:03:39.556Z,12.30
2022-09-09T03:04:39.641Z,12.00
2022-09-09T03:05:39.525Z,12.70
2022-09-09T03:06:39.505Z,10.70
2022-09-09T03:07:39.479Z,12.30
2022-09-09T03:08:39.467Z,10.20
2022-09-09T03:09:40.402Z,12.10
2022-09-09T03:10:39.462Z,9.60
2022-09-09T03:11:39.449Z,12.10
2022-09-09T03:12:39.415Z,11.10
2022-09-09T03:13:39.402Z,11.90
2022-09-09T03:14:39.378Z,10.90
2022-09-09T03:15:39.387Z,12.20
2022-09-09T03:16:39.401Z,10.40
2022-09-09T03:17:39.359Z,11.20
2022-09-09T03:18:39.340Z,13.30
2022-09-09T03:19:39.327Z,12.00
2022-09-09T03:20:39.310Z,12.90
2022-09-09T03:21:39.437Z,10.00
2022-09-09T03:22:39.267Z,10.20
2022-09-09T03:23:39.278Z,10.80
2022-09-09T03:24:39.263Z,10.90
2022-09-09T03:25:39.262Z,10.90
2022-09-09T03:26:39.227Z,8.90
2022-09-09T03:27:39.329Z,11.70
2022-09-09T03:28:39.202Z,11.20
2022-09-09T03:29:39.193Z,10.20
2022-09-09T03:30:39.184Z,13.30
2022-09-09T03:31:39.184Z,13.30
2022-09-09T03:32:40.104Z,16.30
2022-09-09T03:33:39.235Z,11.20
2022-09-09T03:34:39.148Z,12.30
2022-09-09T03:35:39.115Z,11.20
2022-09-09T03:36:39.087Z,12.20
2022-09-09T03:37:40.028Z,10.30
2022-09-09T03:38:39.078Z,9.10
2022-09-09T03:39:39.115Z,12.20
2022-09-09T03:40:39.047Z,13.50
2022-09-09T03:41:39.023Z,11.60
2022-09-09T03:42:39.023Z,8.30
2022-09-09T03:43:39.006Z,11.50
2022-09-09T03:44:39.108Z,10.90
2022-09-09T03:45:39.019Z,14.90
2022-09-09T03:46:38.944Z,9.00
2022-09-09T03:47:38.946Z,12.40
2022-09-09T03:48:39.889Z,16.10
2022-09-09T03:49:38.925Z,11.60
2022-09-09T03:50:39.023Z,12.40
2022-09-09T03:51:38.875Z,9.70
2022-09-09T03:52:38.879Z,9.60
2022-09-09T03:53:38.855Z,11.00
2022-09-09T03:54:38.858Z,13.30
2022-09-09T03:55:38.839Z,10.70
2022-09-09T03:56:38.818Z,10.60
2022-09-09T03:57:39.763Z,10.00
2022-09-09T03:58:38.811Z,12.30
2022-09-09T03:59:38.770Z,11.20
2022-09-09T04:00:38.793Z,11.50
2022-09-09T04:01:38.781Z,10.60
2022-09-09T04:02:38.837Z,10.70
2022-09-09T04:03:38.717Z,12.00
2022-09-09T04:04:38.715Z,9.30
2022-09-09T04:05:38.702Z,10.20
2022-09-09T04:06:38.866Z,8.90
2022-09-09T04:07:38.695Z,11.10
2022-09-09T04:08:38.650Z,9.10
2022-09-09T04:09:38.655Z,9.60
2022-09-09T04:10:38.636Z,9.90
2022-09-09T04:11:38.605Z,10.70
2022-09-09T04:12:38.729Z,10.00
2022-09-09T04:13:38.609Z,11.60
2022-09-09T04:14:38.573Z,13.50
2022-09-09T04:15:38.568Z,10.90
2022-09-09T04:16:38.693Z,10.30
2022-09-09T04:17:38.526Z,9.30
2022-09-09T04:18:38.574Z,10.70
2022-09-09T04:19:38.507Z,12.00
2022-09-09T04:20:38.496Z,9.20
2022-09-09T04:21:38.490Z,9.70
2022-09-09T04:22:38.479Z,9.80
2022-09-09T04:23:38.566Z,10.70
2022-09-09T04:24:39.275Z,11.40
2022-09-09T04:25:38.414Z,11.80
2022-09-09T04:26:38.408Z,8.60
2022-09-09T04:27:38.401Z,11.90
2022-09-09T04:28:38.579Z,8.60
2022-09-09T04:29:38.541Z,10.70
2022-09-09T04:30:38.379Z,8.20
2022-09-09T04:31:38.367Z,8.90
2022-09-09T04:32:38.354Z,11.90
2022-09-09T04:33:40.492Z,12.20
2022-09-09T04:34:38.301Z,9.00
2022-09-09T04:35:38.437Z,10.00
2022-09-09T04:36:38.270Z,8.80
2022-09-09T04:37:38.313Z,10.60
2022-09-09T04:38:38.323Z,9.00
2022-09-09T04:39:38.255Z,9.10
2022-09-09T04:40:38.235Z,10.50
2022-09-09T04:41:38.193Z,9.40
2022-09-09T04:42:38.191Z,10.20
2022-09-09T04:43:38.177Z,8.70
2022-09-09T04:44:38.160Z,10.00
2022-09-09T04:45:38.206Z,9.00
2022-09-09T04:46:38.276Z,7.70
2022-09-09T04:47:38.124Z,8.60
2022-09-09T04:48:38.287Z,8.40
2022-09-09T04:49:38.117Z,11.10
2022-09-09T04:50:38.089Z,9.80
2022-09-09T04:51:38.070Z,7.10
2022-09-09T04:52:38.116Z,10.40
2022-09-09T04:53:38.035Z,13.00
2022-09-09T04:54:38.034Z,10.60
2022-09-09T04:55:38.037Z,8.80
2022-09-09T04:56:38.015Z,8.10
2022-09-09T04:57:37.991Z,9.40
2022-09-09T04:58:38.165Z,9.80
2022-09-09T04:59:37.965Z,10.60
2022-09-09T05:00:38.067Z,9.50
2022-09-09T05:01:37.920Z,8.40
2022-09-09T05:02:37.968Z,7.80
2022-09-09T05:03:37.921Z,10.20
2022-09-09T05:04:37.913Z,8.40
2022-09-09T05:05:37.897Z,9.60
2022-09-09T05:06:37.880Z,11.90
2022-09-09T05:07:37.863Z,9.50
2022-09-09T05:08:37.930Z,9.00
2022-09-09T05:09:38.785Z,11.00
2022-09-09T05:10:37.827Z,10.50
2022-09-09T05:11:37.891Z,8.10
2022-09-09T05:12:37.795Z,8.30
2022-09-09T05:13:41.349Z,9.70
2022-09-09T05:14:37.753Z,9.60
2022-09-09T05:15:37.765Z,7.60
2022-09-09T05:16:37.766Z,8.40
2022-09-09T05:17:38.687Z,10.80
2022-09-09T05:18:37.856Z,10.60
2022-09-09T05:19:37.814Z,10.10
2022-09-09T05:20:37.786Z,9.60
2022-09-09T05:21:37.666Z,12.10
2022-09-09T05:22:37.677Z,9.50
2022-09-09T05:23:37.630Z,9.40
2022-09-09T05:24:37.630Z,11.30
2022-09-09T05:25:37.619Z,8.50
2022-09-09T05:26:38.535Z,11.40
2022-09-09T05:27:37.590Z,10.20
2022-09-09T05:28:37.736Z,8.90
2022-09-09T05:29:37.569Z,11.80
2022-09-09T05:30:37.562Z,7.40
2022-09-09T05:31:37.572Z,9.90
2022-09-09T05:32:37.523Z,9.80
2022-09-09T05:33:37.510Z,13.20
2022-09-09T05:34:37.499Z,8.60
2022-09-09T05:35:37.478Z,8.90
2022-09-09T05:36:37.470Z,8.90
2022-09-09T05:37:37.451Z,8.60
2022-09-09T05:38:37.504Z,8.00
2022-09-09T05:39:37.450Z,7.30
2022-09-09T05:40:37.434Z,7.60
2022-09-09T05:41:37.381Z,7.90
2022-09-09T05:42:38.341Z,8.40
2022-09-09T05:43:37.375Z,7.90
2022-09-09T05:44:37.345Z,7.80
2022-09-09T05:45:37.353Z,8.20
2022-09-09T05:46:37.411Z,9.00
2022-09-09T05:47:37.304Z,9.20
2022-09-09T05:48:37.408Z,8.50
2022-09-09T05:49:37.283Z,8.70
2022-09-09T05:50:37.282Z,11.80
2022-09-09T05:51:37.266Z,10.80
2022-09-09T05:52:37.289Z,8.90
2022-09-09T05:53:37.241Z,8.80
2022-09-09T05:54:37.227Z,9.20
2022-09-09T05:55:37.208Z,9.10
2022-09-09T05:56:37.187Z,10.30
2022-09-09T05:57:37.190Z,9.20
2022-09-09T05:58:37.278Z,9.40
2022-09-09T05:59:37.160Z,9.60
2022-09-09T06:00:37.142Z,9.30
2022-09-09T06:01:37.310Z,9.80
2022-09-09T06:02:37.281Z,10.20
2022-09-09T06:03:37.100Z,9.40
2022-09-09T06:04:37.086Z,9.30
2022-09-09T06:05:37.072Z,9.60
2022-09-09T06:06:37.073Z,10.30
2022-09-09T06:07:37.021Z,11.70
2022-09-09T06:08:37.100Z,10.00
2022-09-09T06:09:37.133Z,9.60
2022-09-09T06:10:37.001Z,12.40
2022-09-09T06:11:36.994Z,10.50
2022-09-09T06:12:36.985Z,10.40
2022-09-09T06:13:36.962Z,10.50
2022-09-09T06:14:36.933Z,10.90
2022-09-09T06:15:37.084Z,8.80
2022-09-09T06:16:36.979Z,11.10
2022-09-09T06:17:36.917Z,14.30
2022-09-09T06:18:36.993Z,8.70
2022-09-09T06:19:36.884Z,8.60
2022-09-09T06:20:36.896Z,9.70
2022-09-09T06:21:36.852Z,9.30
2022-09-09T06:22:36.845Z,9.50
2022-09-09T06:23:36.829Z,9.50
2022-09-09T06:24:36.829Z,11.30
2022-09-09T06:25:36.819Z,9.60
2022-09-09T06:26:36.788Z,10.50
2022-09-09T06:27:36.778Z,12.00
2022-09-09T06:28:36.873Z,9.40
2022-09-09T06:29:36.750Z,9.30
2022-09-09T06:30:36.750Z,9.90
2022-09-09T06:31:36.767Z,10.40
2022-09-09T06:32:36.722Z,9.00
2022-09-09T06:33:36.697Z,9.80
2022-09-09T06:34:36.676Z,9.20
2022-09-09T06:35:36.671Z,9.20
2022-09-09T06:36:36.954Z,9.70
2022-09-09T06:37:36.701Z,9.00
2022-09-09T06:38:36.828Z,7.80
2022-09-09T06:39:36.705Z,8.60
2022-09-09T06:40:36.680Z,9.10
2022-09-09T06:41:36.659Z,10.70
2022-09-09T06:42:36.791Z,9.70
2022-09-09T06:43:36.643Z,8.00
2022-09-09T06:44:36.553Z,10.20
2022-09-09T06:45:36.578Z,8.00
2022-09-09T06:46:36.596Z,10.10
2022-09-09T06:47:36.506Z,9.90
2022-09-09T06:48:36.598Z,7.70
2022-09-09T06:49:36.468Z,8.50
2022-09-09T06:50:36.465Z,6.60
2022-09-09T06:51:36.478Z,7.90
2022-09-09T06:52:36.447Z,10.80
2022-09-09T06:53:36.432Z,9.30
2022-09-09T06:54:36.433Z,10.40
2022-09-09T06:55:36.390Z,8.70
2022-09-09T06:56:36.398Z,8.20
2022-09-09T06:57:37.709Z,14.20
2022-09-09T06:58:36.478Z,8.70
2022-09-09T06:59:36.341Z,8.80
2022-09-09T07:00:36.384Z,8.80
2022-09-09T07:01:36.426Z,9.40
2022-09-09T07:02:36.320Z,9.70
2022-09-09T07:03:36.324Z,8.10
2022-09-09T07:04:36.299Z,9.90
2022-09-09T07:05:36.275Z,7.20
2022-09-09T07:06:36.265Z,8.10
2022-09-09T07:07:36.236Z,8.30
2022-09-09T07:08:36.301Z,9.10
2022-09-09T07:09:36.203Z,9.20
2022-09-09T07:10:36.195Z,7.00
2022-09-09T07:11:36.197Z,6.90
2022-09-09T07:12:36.187Z,7.10
2022-09-09T07:13:36.154Z,6.70
2022-09-09T07:14:36.163Z,11.50
2022-09-09T07:15:36.141Z,9.40
2022-09-09T07:16:36.166Z,7.70
2022-09-09T07:17:36.110Z,8.80
2022-09-09T07:18:36.196Z,10.80
2022-09-09T07:19:36.078Z,6.30
2022-09-09T07:20:36.090Z,7.10
2022-09-09T07:21:36.057Z,6.70
2022-09-09T07:22:36.046Z,9.20
2022-09-09T07:23:36.478Z,7.20
2022-09-09T07:24:36.127Z,10.60
2022-09-09T07:25:36.005Z,9.00
2022-09-09T07:26:35.998Z,8.30
2022-09-09T07:27:35.969Z,7.70
2022-09-09T07:28:35.998Z,9.40
2022-09-09T07:29:35.953Z,10.00
2022-09-09T07:30:36.076Z,9.20
2022-09-09T07:31:35.980Z,7.90
2022-09-09T07:32:35.920Z,9.30
2022-09-09T07:33:35.899Z,12.20
2022-09-09T07:34:35.873Z,7.90
2022-09-09T07:35:36.574Z,8.30
2022-09-09T07:36:35.962Z,9.10
2022-09-09T07:37:35.846Z,9.80
2022-09-09T07:38:35.863Z,8.90
2022-09-09T07:39:35.898Z,6.10
2022-09-09T07:40:35.819Z,6.00
2022-09-09T07:41:35.799Z,6.70
2022-09-09T07:42:35.789Z,10.60
2022-09-09T07:43:35.778Z,8.20
2022-09-09T07:44:35.748Z,8.20
2022-09-09T07:45:35.739Z,8.90
2022-09-09T07:46:35.790Z,7.80
2022-09-09T07:47:35.707Z,6.00
2022-09-09T07:48:35.761Z,7.70
2022-09-09T07:49:36.378Z,8.40
2022-09-09T07:50:35.658Z,7.90
2022-09-09T07:51:35.663Z,7.30
2022-09-09T07:52:35.645Z,8.50
2022-09-09T07:53:35.735Z,9.30
2022-09-09T07:54:35.631Z,5.70
2022-09-09T07:55:35.605Z,8.70
2022-09-09T07:56:35.591Z,9.30
2022-09-09T07:57:35.680Z,10.30
2022-09-09T07:58:38.374Z,10.40
2022-09-09T07:59:35.557Z,10.10
2022-09-09T08:00:36.495Z,9.50
2022-09-09T08:01:35.595Z,6.80
2022-09-09T08:02:35.505Z,8.80
2022-09-09T08:03:35.918Z,7.80
2022-09-09T08:04:35.474Z,9.10
2022-09-09T08:05:35.477Z,7.30
2022-09-09T08:06:35.457Z,7.40
2022-09-09T08:07:35.441Z,9.80
2022-09-09T08:08:35.437Z,9.50
2022-09-09T08:09:35.524Z,8.50
2022-09-09T08:10:35.392Z,12.00
2022-09-09T08:11:38.785Z,7.30
2022-09-09T08:12:36.395Z,11.20
2022-09-09T08:13:35.388Z,10.30
2022-09-09T08:14:35.359Z,7.80
2022-09-09T08:15:35.437Z,9.60
2022-09-09T08:16:35.319Z,8.90
2022-09-09T08:17:35.351Z,10.10
2022-09-09T08:18:35.309Z,10.10
2022-09-09T08:19:35.278Z,11.20
2022-09-09T08:20:35.317Z,8.00
2022-09-09T08:21:35.248Z,10.20
2022-09-09T08:22:35.237Z,9.40
2022-09-09T08:23:35.280Z,13.90
2022-09-09T08:24:35.210Z,9.10
2022-09-09T08:25:35.214Z,9.50
2022-09-09T08:26:35.244Z,6.00
2022-09-09T08:27:35.179Z,8.10
2022-09-09T08:28:35.164Z,9.00
2022-09-09T08:29:35.150Z,12.00
2022-09-09T08:30:35.133Z,11.20
2022-09-09T08:31:35.136Z,7.40
2022-09-09T08:32:35.125Z,7.40
2022-09-09T08:33:35.204Z,8.80
2022-09-09T08:34:35.084Z,10.30
2022-09-09T08:35:35.101Z,10.80
2022-09-09T08:36:35.066Z,9.70
2022-09-09T08:37:35.169Z,9.00
2022-09-09T08:38:35.038Z,8.60
2022-09-09T08:39:35.083Z,7.50
2022-09-09T08:40:35.009Z,8.90
2022-09-09T08:41:34.987Z,7.70
2022-09-09T08:42:34.968Z,9.20
2022-09-09T08:43:35.126Z,9.70
2022-09-09T08:44:34.942Z,7.60
2022-09-09T08:45:34.942Z,12.60
2022-09-09T08:46:34.990Z,7.90
2022-09-09T08:47:34.908Z,11.30
2022-09-09T08:48:34.933Z,10.20
2022-09-09T08:49:35.001Z,9.60
2022-09-09T08:50:34.861Z,11.50
2022-09-09T08:51:34.863Z,9.50
2022-09-09T08:52:34.833Z,10.20
2022-09-09T08:53:34.854Z,13.10
2022-09-09T08:54:50.995Z,9.30
2022-09-09T08:55:35.923Z,12.70
2022-09-09T08:56:34.797Z,11.40
2022-09-09T08:57:34.774Z,10.60
2022-09-09T08:58:34.783Z,8.20
2022-09-09T08:59:34.767Z,12.20
2022-09-09T09:00:34.724Z,9.10
2022-09-09T09:01:35.941Z,8.90
2022-09-09T09:02:34.721Z,10.30
2022-09-09T09:03:34.692Z,11.10
2022-09-09T09:04:34.761Z,9.50
2022-09-09T09:05:34.687Z,12.60
2022-09-09T09:06:34.668Z,11.50
2022-09-09T09:07:34.678Z,9.60
2022-09-09T09:08:34.678Z,8.80
2022-09-09T09:09:34.617Z,9.10
2022-09-09T09:10:42.930Z,7.90
2022-09-09T09:11:35.622Z,11.80
2022-09-09T09:12:34.569Z,11.20
2022-09-09T09:13:34.580Z,9.00
2022-09-09T09:14:34.564Z,8.40
2022-09-09T09:15:34.554Z,11.90
2022-09-09T09:16:34.532Z,11.20
2022-09-09T09:17:34.515Z,14.40
2022-09-09T09:18:34.546Z,7.70
2022-09-09T09:19:34.496Z,11.30
2022-09-09T09:20:34.475Z,8.50
2022-09-09T09:21:34.468Z,8.20
2022-09-09T09:22:34.433Z,9.00
2022-09-09T09:23:34.448Z,11.00
2022-09-09T09:24:34.413Z,8.40
2022-09-09T09:25:34.427Z,9.10
2022-09-09T09:26:34.410Z,12.10
2022-09-09T09:27:34.375Z,12.30
2022-09-09T09:28:34.382Z,11.20
2022-09-09T09:29:41.824Z,7.60
2022-09-09T09:30:35.337Z,8.50
2022-09-09T09:31:34.342Z,11.10
2022-09-09T09:32:34.309Z,8.80
2022-09-09T09:33:34.312Z,14.60
2022-09-09T09:34:34.311Z,8.60
2022-09-09T09:35:37.407Z,10.50
2022-09-09T09:36:35.251Z,10.80
2022-09-09T09:37:34.285Z,13.20
2022-09-09T09:40:35.232Z,8.70
2022-09-09T09:41:34.197Z,9.70
2022-09-09T09:42:34.170Z,10.50
2022-09-09T09:43:34.244Z,10.10
2022-09-09T09:44:34.262Z,8.80
2022-09-09T09:45:34.175Z,15.10
2022-09-09T09:46:34.231Z,11.70
2022-09-09T09:47:34.118Z,8.10
2022-09-09T09:48:34.109Z,9.60
2022-09-09T09:49:34.083Z,9.60
2022-09-09T09:50:34.063Z,9.10
2022-09-09T09:51:34.077Z,11.90
2022-09-09T09:52:34.047Z,10.40
2022-09-09T09:53:34.099Z,10.00
2022-09-09T09:54:34.037Z,8.30
2022-09-09T09:55:34.015Z,10.10
2022-09-09T09:56:34.133Z,10.60
2022-09-09T09:57:34.061Z,9.60
2022-09-09T09:58:34.041Z,10.10
2022-09-09T09:59:41.280Z,9.00
2022-09-09T10:00:35.051Z,11.50
2022-09-09T10:01:34.101Z,14.10
2022-09-09T10:02:33.933Z,8.30
2022-09-09T10:03:33.904Z,7.80
2022-09-09T10:04:33.960Z,8.10
2022-09-09T10:05:36.205Z,12.30
2022-09-09T10:06:33.860Z,11.00
2022-09-09T10:07:33.854Z,10.30
2022-09-09T10:08:33.845Z,8.40
2022-09-09T10:09:33.831Z,14.80
2022-09-09T10:10:33.932Z,14.50
2022-09-09T10:11:33.831Z,11.10
2022-09-09T10:12:33.772Z,19.90
2022-09-09T10:13:33.777Z,25.80
2022-09-09T10:14:33.758Z,19.80
2022-09-09T10:15:33.799Z,24.20
2022-09-09T10:16:33.737Z,16.90
2022-09-09T10:18:44.912Z,9.60
2022-09-09T10:19:44.739Z,11.80
2022-09-09T10:20:44.727Z,12.30
2022-09-09T10:21:45.049Z,10.30
2022-09-09T10:22:45.053Z,14.80
2022-09-09T10:23:44.712Z,11.10
2022-09-09T10:24:45.023Z,13.10
2022-09-09T10:25:44.938Z,12.30
2022-09-09T10:26:44.948Z,14.50
2022-09-09T10:27:44.740Z,30.60
2022-09-09T10:28:44.588Z,17.90
2022-09-09T10:29:44.583Z,37.60
2022-09-09T10:30:44.612Z,26.30
2022-09-09T10:31:44.542Z,32.00
2022-09-09T10:32:44.574Z,28.50
2022-09-09T10:33:44.623Z,16.90
2022-09-09T10:34:44.503Z,19.60
2022-09-09T10:35:44.510Z,18.90
2022-09-09T10:36:44.481Z,16.20
2022-09-09T10:37:44.485Z,19.30
2022-09-09T10:38:44.517Z,16.60
2022-09-09T10:39:44.458Z,16.10
2022-09-09T10:40:44.425Z,13.90
2022-09-09T10:41:44.419Z,13.90
2022-09-09T10:42:44.411Z,14.00
2022-09-09T10:43:45.078Z,12.00
2022-09-09T10:44:44.500Z,12.70
2022-09-09T10:45:44.485Z,9.60
2022-09-09T10:46:44.345Z,12.50
2022-09-09T10:47:45.292Z,11.70
2022-09-09T10:48:44.329Z,12.70
2022-09-09T10:49:44.311Z,14.80
2022-09-09T10:51:00.449Z,11.80
2022-09-09T10:51:45.277Z,13.70
2022-09-09T10:52:44.273Z,13.30
2022-09-09T10:53:44.247Z,13.20
2022-09-09T10:54:44.230Z,14.20
2022-09-09T10:55:44.232Z,19.80
2022-09-09T10:56:44.233Z,15.40
2022-09-09T10:57:44.191Z,17.50
2022-09-09T10:58:44.183Z,14.50
2022-09-09T10:59:44.176Z,16.00
2022-09-09T11:00:44.153Z,13.10
2022-09-09T11:01:44.285Z,18.70
2022-09-09T11:02:44.147Z,13.30
2022-09-09T11:03:44.112Z,16.60
2022-09-09T11:04:44.119Z,15.80
2022-09-09T11:05:44.074Z,14.40
2022-09-09T11:06:44.151Z,15.80
2022-09-09T11:07:44.200Z,14.60
2022-09-09T11:08:44.044Z,18.60
2022-09-09T11:09:44.039Z,16.10
2022-09-09T11:10:44.030Z,18.80
2022-09-09T11:11:43.997Z,14.00
2022-09-09T11:12:44.012Z,14.50
2022-09-09T11:13:43.978Z,16.30
2022-09-09T11:14:43.963Z,12.60
2022-09-09T11:15:44.436Z,14.10
2022-09-09T11:16:44.002Z,10.80
2022-09-09T11:17:43.941Z,11.20
2022-09-09T11:18:43.924Z,11.80
2022-09-09T11:19:43.890Z,12.60
2022-09-09T11:20:43.894Z,9.30
2022-09-09T11:21:43.871Z,9.20
2022-09-09T11:22:43.862Z,11.70
2022-09-09T11:23:43.882Z,9.80
2022-09-09T11:24:43.857Z,11.30
2022-09-09T11:25:43.878Z,13.10
2022-09-09T11:26:43.821Z,11.70
2022-09-09T11:27:43.804Z,9.00
2022-09-09T11:28:43.931Z,8.20
2022-09-09T11:29:43.777Z,9.40
2022-09-09T11:30:55.951Z,10.00
2022-09-09T11:31:44.783Z,8.90
2022-09-09T11:32:43.748Z,8.60
2022-09-09T11:33:43.707Z,9.90
2022-09-09T11:34:43.728Z,7.50
2022-09-09T11:35:43.698Z,9.60
2022-09-09T11:36:43.680Z,7.50
2022-09-09T11:37:43.671Z,10.40
2022-09-09T11:38:43.663Z,9.70
2022-09-09T11:39:43.646Z,9.80
2022-09-09T11:40:43.641Z,7.80
2022-09-09T11:41:43.609Z,9.50
2022-09-09T11:42:43.590Z,9.10
2022-09-09T11:43:43.585Z,8.50
2022-09-09T11:44:43.585Z,7.00
2022-09-09T11:45:43.693Z,6.90
2022-09-09T11:46:43.581Z,7.30
2022-09-09T11:47:43.538Z,11.90
2022-09-09T11:48:43.513Z,8.00
2022-09-09T11:49:43.508Z,8.00
2022-09-09T11:50:43.497Z,9.60
2022-09-09T11:51:43.474Z,6.80
2022-09-09T11:52:43.478Z,6.90
2022-09-09T11:53:43.447Z,6.80
2022-09-09T11:54:43.428Z,6.50
2022-09-09T11:55:43.428Z,7.40
2022-09-09T11:56:43.417Z,9.30
2022-09-09T11:57:46.462Z,9.60
2022-09-09T11:58:44.400Z,8.10
2022-09-09T11:59:43.369Z,5.90
2022-09-09T12:00:43.360Z,6.40
2022-09-09T12:01:43.352Z,7.80
2022-09-09T12:02:43.389Z,8.80
2022-09-09T12:03:43.349Z,6.00
2022-09-09T12:04:43.397Z,8.30
2022-09-09T12:05:43.281Z,7.40
2022-09-09T12:06:43.309Z,8.40
2022-09-09T12:07:43.274Z,7.40
2022-09-09T12:08:43.254Z,8.00
2022-09-09T12:09:43.262Z,6.10
2022-09-09T12:10:43.245Z,5.90
2022-09-09T12:11:43.228Z,8.30
2022-09-09T12:12:44.265Z,5.60
2022-09-09T12:13:43.192Z,7.70
2022-09-09T12:14:43.176Z,6.00
2022-09-09T12:15:43.173Z,11.80
2022-09-09T12:16:43.177Z,8.40
2022-09-09T12:17:43.152Z,9.70
2022-09-09T12:18:43.219Z,7.40
2022-09-09T12:19:43.135Z,7.30
2022-09-09T12:20:43.128Z,7.10
2022-09-09T12:21:43.104Z,9.90
2022-09-09T12:22:43.132Z,5.80
2022-09-09T12:23:43.074Z,8.10
2022-09-09T12:24:43.055Z,11.10
2022-09-09T12:25:43.035Z,5.40
2022-09-09T12:26:43.056Z,11.20
2022-09-09T12:27:42.993Z,10.40
2022-09-09T12:28:43.006Z,8.30
2022-09-09T12:29:42.965Z,7.70
2022-09-09T12:30:42.978Z,5.60
2022-09-09T12:31:45.713Z,6.80
2022-09-09T12:32:42.940Z,8.90
2022-09-09T12:33:42.928Z,6.60
2022-09-09T12:34:42.905Z,7.90
2022-09-09T12:35:42.899Z,5.40
2022-09-09T12:36:42.881Z,7.90
2022-09-09T12:37:42.870Z,12.20
2022-09-09T12:38:42.990Z,7.50
2022-09-09T12:39:42.842Z,8.60
2022-09-09T12:40:42.841Z,8.50
2022-09-09T12:41:42.801Z,6.30
2022-09-09T12:42:42.793Z,8.40
2022-09-09T12:43:42.823Z,8.50
2022-09-09T12:44:42.778Z,7.40
2022-09-09T12:45:42.788Z,7.80
2022-09-09T12:46:42.786Z,6.60
2022-09-09T12:47:42.733Z,6.10
2022-09-09T12:48:42.719Z,5.70
2022-09-09T12:49:42.715Z,5.30
2022-09-09T12:50:42.716Z,5.20
2022-09-09T12:51:42.673Z,5.30
2022-09-09T12:52:42.681Z,8.30
2022-09-09T12:53:42.645Z,6.50
2022-09-09T12:59:35.889Z,4.20
2022-09-09T13:08:42.027Z,5.10
2022-09-09T13:08:46.898Z,6.50
2022-09-09T13:09:46.824Z,5.90
2022-09-09T13:11:02.865Z,5.20
2022-09-09T13:11:46.674Z,8.40
2022-09-09T13:12:46.667Z,5.00
2022-09-09T13:13:46.633Z,5.40
2022-09-09T13:14:46.628Z,4.90
2022-09-09T13:15:46.622Z,6.00
2022-09-09T13:16:46.644Z,5.70
2022-09-09T13:17:46.585Z,5.90
2022-09-09T13:18:46.586Z,5.60
2022-09-09T13:19:46.570Z,5.60